Aérodrome :
LOGIN :

S'inscrire | Disclaimer

   EN    FR    IT 

 










Légende :    VFR   VFR Marginal   IFR   IFR Intensif   IFR Très Intensif
Visi : 
Plafond : 
>= 8 km
>= 3000ft
5 à 8 km
1000 à 3000 ft
1500m à 5 km
500 à 1000 ft
800 à 1500m
200 à 500 ft
< 800m
< 200 ft
Symboles :   Orages  Brouillard  Fortes neiges  Fortes précipitations  Vent > 20 kt
SIGMETs :   Divers  Orages  Givrage  Turbulence  Onde Orograph.  Cendres Volcan.






- Altitude de l'aérodrome : 29 ft


LIRM - Grazzanise Caserta

DERNIER METAR :
  • 111655Z 26008KT CAVOK 27/21 Q1014 RMK SKC VIS MIN 9999 WIND THR06 24007KT BLU

METARs EXPIRÉS :
  • 111555Z 26009KT CAVOK 27/20 Q1014 RMK SKC VIS MIN 9999 WIND THR06 25010KT BLU
  • 111455Z 26011KT 9999 FEW030 28/22 Q1014 RMK FEW VIS MIN 9999 WIND THR06 25012KT BLU

TAF TAF LIRM
Valide du 11 à 18h jusqu'au 12 à 03h UTC


111700Z 1118/1203 VRB05KT CAVOK
TEMPO 1122/1203 5000 BR SCT010



MET'MAP, la Météo Aéronautique d'un coup d'oeil ! - Copyright ORBIFLY Décembre 2007 - Disclaimer

ORBIFLY MET'MAP TEAM :

Programmation & Développement : Alexandra Zaïnal
Sur une idée originale de : Baudouin d'Aumeries
Assistance à la programmation : Marc-Olivier Méhu
Soutien technique & logistique : Manuel Goepfert

Contact : metmap@orbifly.com




SOURCES & CREDITS :

   NOAA